Terminal Aerodrome Forecast
Issued by NWS

Home | Current Version | Previous Version | Text Only | Print | Product List | Glossary Off
Versions: 1 2 3 4 5 6 7 8 9 10 11 12 13 14 15 16 17 18 19 20 21 22 23 24 25 26

002
FTUS43 KBIS 251539 AAA
TAFDIK
TAF AMD
KDIK 251539Z 2516/2612 30019G28KT P6SM SKC
     FM251800 31024G36KT P6SM FEW250
     FM252300 31018G27KT P6SM SKC
     FM260100 30010KT P6SM SKC=

USA.gov is the U.S. government's official web portal to all federal, state and local government web resources and services.